SKVP/VUP METAR and TAF weather

Enter ICAO airport designator
Station Type Date Time Source
SKVP METAR 2019/04/25 11:00 UTC NOAA

SKVP 251100Z 06008KT 9999 FEW010 25/23 A2991


Station Type Date Time Source
SKVP Decoded METAR 2019/04/25 11:00 UTC NOAA

Valledupar / Alfonso Lopez, Colombia (SKVP) 10-26N 073-15W
Apr 25, 2019 - 07:00 AM EDT / 2019.04.25 1100 UTC
Wind: from the ENE (060 degrees) at 9 MPH (8 KT):0
Visibility: greater than 7 mile(s):0
Sky conditions: mostly clear
Temperature: 77 F (25 C)
Dew Point: 73 F (23 C)
Relative Humidity: 88%
Pressure (altimeter): 29.91 in. Hg (1012 hPa)
ob: SKVP 251100Z 06008KT 9999 FEW010 25/23 A2991
cycle: 11

Station Type Date Time Source
SKVP TAF UTC NOAA

Error!

Example: see airport list